Time;durP1;ratioP1;P1;durP2;ratioP2;P2;SDS_P1;SDS_P2;PMS_P1;PMS_P2;Temp;Humidity;BMP_temperature;BMP_pressure;BME280_temperature;BME280_humidity;BME280_pressure;Samples;Min_cycle;Max_cycle;Signal;HPM_P1;HPM_P2
2021/11/14 00:01:20;;;;;;;7.53;4.05;;;15.90;99.90;;;;;;5115821;28;20078;-52
2021/11/14 00:03:48;;;;;;;5.57;2.85;;;15.80;99.90;;;;;;5115755;28;20039;-48
2021/11/14 00:06:20;;;;;;;7.13;3.40;;;15.80;99.90;;;;;;5115862;28;20089;-50
2021/11/14 00:08:49;;;;;;;9.02;5.00;;;15.80;99.90;;;;;;5075964;28;20371;-50
2021/11/14 00:11:19;;;;;;;5.70;2.45;;;15.80;99.90;;;;;;5095206;28;20075;-51
2021/11/14 00:13:48;;;;;;;5.72;3.28;;;15.70;99.90;;;;;;5095378;28;20471;-53
2021/11/14 00:16:18;;;;;;;7.07;3.50;;;15.80;99.90;;;;;;5095236;28;20555;-49
2021/11/14 00:18:46;;;;;;;6.10;4.07;;;15.80;99.90;;;;;;5095324;28;20044;-51
2021/11/14 00:21:17;;;;;;;7.50;4.32;;;15.90;99.90;;;;;;5094995;28;20043;-50
2021/11/14 00:23:45;;;;;;;5.65;3.40;;;15.90;99.90;;;;;;5095128;28;20048;-50
2021/11/14 00:26:13;;;;;;;8.98;4.32;;;15.90;99.90;;;;;;5077088;28;20044;-50
2021/11/14 00:28:42;;;;;;;6.80;3.75;;;15.90;99.90;;;;;;5076803;28;20471;-51
2021/11/14 00:31:16;;;;;;;7.55;3.85;;;15.90;99.90;;;;;;5094763;28;20047;-50
2021/11/14 00:33:46;;;;;;;5.63;3.70;;;15.90;99.90;;;;;;5094991;28;20055;-49
2021/11/14 00:36:19;;;;;;;7.32;3.08;;;15.80;99.90;;;;;;5076777;28;20044;-52
2021/11/14 00:38:48;;;;;;;5.80;3.33;;;15.70;99.90;;;;;;5094868;28;20077;-49
2021/11/14 00:41:15;;;;;;;6.20;3.15;;;15.70;99.90;;;;;;5094930;28;20047;-53
2021/11/14 00:43:43;;;;;;;5.82;3.47;;;15.70;99.90;;;;;;5076915;28;20048;-48
2021/11/14 00:46:11;;;;;;;6.30;4.00;;;15.80;99.90;;;;;;5093592;28;20051;-50
2021/11/14 00:48:42;;;;;;;5.38;3.03;;;15.80;99.90;;;;;;5094612;28;20048;-50
2021/11/14 00:51:12;;;;;;;5.65;3.53;;;15.80;99.90;;;;;;5076546;28;20051;-52
2021/11/14 00:53:40;;;;;;;7.53;4.05;;;15.80;99.90;;;;;;5094489;28;20071;-51
2021/11/14 00:56:08;;;;;;;6.15;3.95;;;15.90;99.90;;;;;;5076549;28;20036;-49
2021/11/14 00:58:36;;;;;;;5.25;3.50;;;15.80;99.90;;;;;;5094390;28;20040;-50
2021/11/14 01:01:03;;;;;;;8.50;3.72;;;15.80;99.90;;;;;;5094348;28;20539;-53
2021/11/14 01:03:31;;;;;;;6.88;3.55;;;15.80;99.90;;;;;;5094563;28;20052;-51
2021/11/14 01:05:59;;;;;;;6.43;3.83;;;15.80;99.90;;;;;;5076297;28;20070;-52
2021/11/14 01:08:29;;;;;;;6.72;3.75;;;15.80;99.90;;;;;;5076158;28;20044;-49
2021/11/14 01:10:58;;;;;;;6.75;3.92;;;15.80;99.90;;;;;;5076114;28;20101;-52
2021/11/14 01:13:26;;;;;;;9.32;3.58;;;15.90;99.90;;;;;;5094158;28;20504;-48
2021/11/14 01:15:54;;;;;;;5.72;3.70;;;15.90;99.90;;;;;;5094139;28;20044;-50
2021/11/14 01:18:23;;;;;;;6.20;3.58;;;15.90;99.90;;;;;;5094246;28;20131;-52
2021/11/14 01:20:57;;;;;;;6.18;3.60;;;16.00;99.90;;;;;;5094117;28;20044;-51
2021/11/14 01:23:25;;;;;;;5.07;3.22;;;16.00;99.90;;;;;;5094031;28;20098;-50
2021/11/14 01:25:53;;;;;;;5.57;4.20;;;16.00;99.90;;;;;;5075797;28;20494;-51
2021/11/14 01:28:21;;;;;;;5.10;3.40;;;16.00;99.90;;;;;;5076158;28;20036;-51
2021/11/14 01:30:52;;;;;;;5.80;3.90;;;16.00;99.90;;;;;;5093969;28;20040;-51
2021/11/14 01:33:21;;;;;;;6.38;3.97;;;15.90;99.90;;;;;;5074936;28;20476;-51
2021/11/14 01:35:50;;;;;;;6.95;4.65;;;16.00;99.90;;;;;;5093948;28;20130;-49
2021/11/14 01:38:17;;;;;;;4.88;4.03;;;16.00;99.90;;;;;;5093559;28;20513;-50
2021/11/14 01:40:48;;;;;;;5.97;3.42;;;16.00;99.90;;;;;;5092846;28;20040;-50
2021/11/14 01:43:24;;;;;;;6.20;3.95;;;16.00;99.90;;;;;;5093692;28;20044;-51
2021/11/14 01:45:53;;;;;;;8.80;5.13;;;16.00;99.90;;;;;;5094008;28;20044;-52
2021/11/14 01:48:21;;;;;;;9.13;4.57;;;16.00;99.90;;;;;;5075646;28;20048;-53
2021/11/14 01:50:49;;;;;;;7.15;4.40;;;16.00;99.90;;;;;;5075791;28;20040;-49
2021/11/14 01:53:17;;;;;;;11.60;5.10;;;16.00;99.90;;;;;;5093580;28;20060;-49
2021/11/14 01:55:46;;;;;;;6.60;4.15;;;15.90;99.90;;;;;;5093640;28;20040;-54
2021/11/14 01:58:17;;;;;;;5.97;4.20;;;15.90;99.90;;;;;;5075627;28;20040;-53
2021/11/14 02:00:49;;;;;;;6.18;4.00;;;15.90;99.90;;;;;;5093526;28;20058;-51
2021/11/14 02:03:18;;;;;;;7.15;4.22;;;16.00;99.90;;;;;;5075821;28;20071;-50
2021/11/14 02:05:45;;;;;;;10.13;5.07;;;16.00;99.90;;;;;;5093556;28;20501;-52
2021/11/14 02:08:13;;;;;;;6.55;4.25;;;16.00;99.90;;;;;;5093555;28;20055;-49
2021/11/14 02:10:43;;;;;;;6.00;3.42;;;16.10;99.90;;;;;;5075624;28;20537;-51
2021/11/14 02:13:11;;;;;;;5.93;3.95;;;16.00;99.90;;;;;;5093541;28;20447;-51
2021/11/14 02:15:40;;;;;;;6.35;3.50;;;16.00;99.90;;;;;;5097306;28;20031;-51
2021/11/14 02:18:11;;;;;;;7.22;4.57;;;16.00;99.90;;;;;;5113065;28;20040;-52
2021/11/14 02:20:40;;;;;;;8.45;4.22;;;16.00;99.90;;;;;;5113525;28;20424;-53
2021/11/14 02:23:09;;;;;;;7.75;4.55;;;16.00;99.90;;;;;;5113731;28;20122;-50
2021/11/14 02:25:37;;;;;;;10.05;5.40;;;16.00;99.90;;;;;;5113744;28;20070;-53
2021/11/14 02:28:05;;;;;;;14.20;4.95;;;16.00;99.90;;;;;;5113795;28;20042;-48
2021/11/14 02:30:33;;;;;;;8.55;3.90;;;16.00;99.90;;;;;;5113630;28;20035;-54
2021/11/14 02:33:01;;;;;;;6.55;4.72;;;16.00;99.90;;;;;;5113732;28;20051;-52
2021/11/14 02:35:40;;;;;;;8.50;4.15;;;16.00;99.90;;;;;;5095370;28;20040;-52
2021/11/14 02:38:07;;;;;;;7.32;4.05;;;16.00;99.90;;;;;;5113676;28;20036;-49
2021/11/14 02:40:35;;;;;;;7.57;4.35;;;16.00;99.90;;;;;;5095372;28;20093;-51
2021/11/14 02:43:04;;;;;;;7.15;3.92;;;16.00;99.90;;;;;;5095408;28;20118;-52
2021/11/14 02:45:31;;;;;;;8.45;4.53;;;16.00;99.90;;;;;;5113611;28;20088;-52
2021/11/14 02:47:59;;;;;;;6.93;3.90;;;16.00;99.90;;;;;;5113561;28;20517;-50
2021/11/14 02:50:26;;;;;;;5.45;4.38;;;16.00;99.90;;;;;;5113457;28;20046;-52
2021/11/14 02:52:54;;;;;;;9.02;4.47;;;16.00;99.90;;;;;;5116499;28;20056;-52
2021/11/14 02:55:24;;;;;;;5.15;3.55;;;16.00;99.90;;;;;;5099212;28;20382;-53
2021/11/14 02:57:53;;;;;;;8.00;5.05;;;16.00;99.90;;;;;;5099079;28;20044;-52
2021/11/14 03:00:28;;;;;;;6.63;4.22;;;16.00;99.90;;;;;;5099216;28;20059;-52
2021/11/14 03:02:56;;;;;;;7.13;3.67;;;16.00;99.90;;;;;;5117295;28;20040;-50
2021/11/14 03:05:24;;;;;;;6.97;4.57;;;16.00;99.90;;;;;;5098874;28;20074;-52
2021/11/14 03:07:52;;;;;;;5.57;3.75;;;16.00;99.90;;;;;;5117146;28;20043;-49
2021/11/14 03:10:26;;;;;;;6.85;4.45;;;16.00;99.90;;;;;;5098874;28;20104;-53
2021/11/14 03:13:03;;;;;;;6.80;4.00;;;15.90;99.90;;;;;;5117157;28;20061;-53
2021/11/14 03:15:45;;;;;;;7.97;4.18;;;15.90;99.90;;;;;;5116923;28;20035;-51
2021/11/14 03:18:14;;;;;;;7.22;4.55;;;15.90;99.90;;;;;;5116828;28;20071;-52
2021/11/14 03:20:44;;;;;;;6.82;4.68;;;15.90;99.90;;;;;;5081909;28;20051;-50
2021/11/14 03:23:12;;;;;;;7.03;4.47;;;15.90;99.90;;;;;;5116682;28;20036;-52
2021/11/14 03:25:41;;;;;;;7.25;3.83;;;16.00;99.90;;;;;;5081571;28;20398;-52
2021/11/14 03:28:11;;;;;;;6.72;4.05;;;16.00;99.90;;;;;;5098487;28;20424;-54
2021/11/14 03:30:39;;;;;;;6.78;4.53;;;16.00;99.90;;;;;;5116645;28;20046;-52
2021/11/14 03:33:09;;;;;;;14.32;5.03;;;16.00;99.90;;;;;;5116390;28;20118;-51
2021/11/14 03:35:38;;;;;;;7.97;4.75;;;16.00;99.90;;;;;;5116461;28;20042;-50
2021/11/14 03:38:06;;;;;;;7.20;4.60;;;16.00;99.90;;;;;;5081236;28;20375;-54
2021/11/14 03:40:34;;;;;;;7.22;3.70;;;16.00;99.90;;;;;;5116398;28;20045;-51
2021/11/14 03:43:02;;;;;;;6.25;4.30;;;16.00;99.90;;;;;;5116383;28;20497;-50
2021/11/14 03:45:31;;;;;;;8.40;4.45;;;16.10;99.90;;;;;;5116398;28;20035;-52
2021/11/14 03:48:00;;;;;;;8.82;4.47;;;16.00;99.90;;;;;;5098360;28;20051;-51
2021/11/14 03:50:28;;;;;;;7.90;4.97;;;16.00;99.90;;;;;;5116142;28;20498;-52
2021/11/14 03:52:56;;;;;;;7.43;5.05;;;16.00;99.90;;;;;;5116193;28;20383;-54
2021/11/14 03:55:24;;;;;;;7.22;5.00;;;16.00;99.90;;;;;;5116261;28;20048;-49
2021/11/14 03:57:51;;;;;;;8.30;5.18;;;16.00;99.90;;;;;;5116018;28;20047;-51
2021/11/14 04:00:29;;;;;;;7.60;5.25;;;16.00;99.90;;;;;;5098241;28;20382;-52
2021/11/14 04:02:57;;;;;;;8.15;5.00;;;16.00;99.90;;;;;;5097464;28;20043;-50
2021/11/14 04:05:29;;;;;;;10.00;5.07;;;16.00;99.90;;;;;;5097988;28;20040;-53
2021/11/14 04:08:00;;;;;;;8.35;5.00;;;16.00;99.90;;;;;;5115921;28;20044;-50
2021/11/14 04:10:28;;;;;;;9.02;4.82;;;16.00;99.90;;;;;;5115975;28;20032;-50
2021/11/14 04:12:57;;;;;;;9.55;4.45;;;16.10;99.90;;;;;;5115888;28;20122;-50
2021/11/14 04:15:24;;;;;;;9.73;4.93;;;16.10;99.90;;;;;;5097652;28;20039;-50
2021/11/14 04:17:56;;;;;;;11.35;4.78;;;16.10;99.90;;;;;;5115568;28;20043;-52
2021/11/14 04:20:28;;;;;;;8.27;5.43;;;16.10;99.90;;;;;;5115727;28;20044;-52
2021/11/14 04:22:57;;;;;;;10.18;4.25;;;16.20;99.90;;;;;;5115671;28;20044;-53
2021/11/14 04:25:26;;;;;;;8.50;5.53;;;16.20;99.90;;;;;;5115484;28;20100;-49
2021/11/14 04:27:55;;;;;;;8.80;5.53;;;16.30;99.90;;;;;;5115420;28;20059;-52
2021/11/14 04:30:24;;;;;;;9.63;5.43;;;16.30;99.90;;;;;;5115417;28;20066;-53
2021/11/14 04:32:52;;;;;;;9.52;5.15;;;16.30;99.90;;;;;;5097026;28;20097;-51
2021/11/14 04:35:21;;;;;;;9.20;4.78;;;16.40;99.90;;;;;;5097167;28;20048;-52
2021/11/14 04:37:51;;;;;;;9.07;5.20;;;16.40;99.90;;;;;;5115263;28;20043;-49
2021/11/14 04:40:21;;;;;;;9.88;4.70;;;16.40;99.90;;;;;;5080148;28;20062;-49
2021/11/14 04:42:50;;;;;;;11.02;5.38;;;16.50;99.90;;;;;;5115221;28;20126;-54
2021/11/14 04:45:18;;;;;;;8.13;4.90;;;16.50;99.90;;;;;;5115107;28;20363;-52
2021/11/14 04:47:45;;;;;;;7.57;4.80;;;16.50;99.90;;;;;;5115136;28;20043;-49
2021/11/14 04:50:17;;;;;;;10.07;5.55;;;16.50;99.90;;;;;;5115027;28;20073;-52
2021/11/14 04:52:45;;;;;;;14.00;4.60;;;16.50;99.90;;;;;;5114778;28;20047;-51
2021/11/14 04:55:14;;;;;;;9.13;4.97;;;16.50;99.90;;;;;;5114891;28;20142;-54
2021/11/14 04:57:51;;;;;;;10.00;4.65;;;16.60;99.90;;;;;;5114940;28;20036;-52
2021/11/14 05:00:51;;;;;;;9.23;4.65;;;16.60;99.90;;;;;;5114852;28;20044;-52
2021/11/14 05:03:20;;;;;;;11.85;5.10;;;16.60;99.90;;;;;;5109198;28;20043;-49
2021/11/14 05:05:47;;;;;;;9.05;4.20;;;16.60;99.90;;;;;;5096831;28;20046;-50
2021/11/14 05:08:15;;;;;;;8.63;4.57;;;16.60;99.90;;;;;;5114742;28;20370;-52
2021/11/14 05:10:44;;;;;;;9.32;4.43;;;16.60;99.90;;;;;;5114786;28;20063;-50
2021/11/14 05:13:12;;;;;;;6.40;4.50;;;16.60;99.90;;;;;;5114734;28;20494;-54
2021/11/14 05:15:39;;;;;;;10.43;5.07;;;16.50;99.90;;;;;;5096417;28;20044;-53
2021/11/14 05:18:07;;;;;;;8.52;4.60;;;16.60;99.90;;;;;;5096163;28;20048;-50
2021/11/14 05:20:35;;;;;;;9.10;5.18;;;16.60;99.90;;;;;;5114381;28;20039;-51
2021/11/14 05:23:04;;;;;;;8.73;4.72;;;16.60;99.90;;;;;;5114379;28;20075;-50
2021/11/14 05:25:32;;;;;;;10.02;5.43;;;16.50;99.90;;;;;;5114386;28;20042;-53
2021/11/14 05:27:59;;;;;;;8.50;4.90;;;16.60;99.90;;;;;;5114470;28;20047;-53
2021/11/14 05:30:27;;;;;;;7.93;4.68;;;16.50;99.90;;;;;;5114334;28;20122;-52
2021/11/14 05:32:55;;;;;;;10.68;4.82;;;16.50;99.90;;;;;;5095822;28;20387;-50
2021/11/14 05:35:22;;;;;;;8.93;5.35;;;16.60;99.90;;;;;;5114251;28;20509;-52
2021/11/14 05:37:50;;;;;;;14.02;6.05;;;16.60;99.90;;;;;;5114067;28;20075;-50
2021/11/14 05:40:18;;;;;;;10.88;5.50;;;16.60;99.90;;;;;;5114113;28;20436;-52
2021/11/14 05:42:50;;;;;;;10.10;5.47;;;16.60;99.90;;;;;;5114059;28;20050;-49
2021/11/14 05:45:33;;;;;;;10.00;5.82;;;16.60;99.90;;;;;;5095939;28;20039;-50
2021/11/14 05:48:20;;;;;;;8.52;5.25;;;16.60;99.90;;;;;;5112863;28;20058;-51
2021/11/14 05:50:47;;;;;;;13.80;5.63;;;16.50;99.90;;;;;;5114275;28;20053;-53
2021/11/14 05:53:51;;;;;;;10.93;5.32;;;16.40;99.90;;;;;;5113726;28;20090;-48
2021/11/14 05:56:39;;;;;;;10.93;5.47;;;16.40;99.90;;;;;;5071097;28;20461;-51
2021/11/14 06:01:59;;;;;;;6.93;3.83;;;16.20;99.90;;;;;;5071461;28;20072;-51
2021/11/14 06:07:14;;;;;;;3.85;2.67;;;15.90;99.90;;;;;;5070839;28;20110;-52
2021/11/14 06:18:08;;;;;;;4.22;1.60;;;15.50;99.90;;;;;;5050834;28;20195;-51
2021/11/14 06:21:21;;;;;;;2.45;1.40;;;15.20;99.90;;;;;;5053577;28;20059;-53
2021/11/14 06:23:55;;;;;;;4.68;1.00;;;15.10;99.90;;;;;;5071044;28;20041;-51
2021/11/14 06:26:23;;;;;;;3.03;1.40;;;15.10;99.90;;;;;;5071697;28;20064;-51
2021/11/14 06:28:51;;;;;;;3.28;1.75;;;15.20;99.90;;;;;;5117827;28;20585;-53
2021/11/14 06:31:19;;;;;;;2.83;1.40;;;15.30;99.90;;;;;;5117598;28;20039;-54
2021/11/14 06:33:46;;;;;;;2.90;1.17;;;15.30;99.90;;;;;;5117218;28;20047;-51
2021/11/14 06:36:15;;;;;;;2.08;1.00;;;15.40;99.90;;;;;;5117882;28;20067;-50
2021/11/14 06:38:43;;;;;;;2.85;1.38;;;15.40;99.90;;;;;;5099572;28;20075;-54
2021/11/14 06:41:10;;;;;;;3.35;1.75;;;15.40;99.90;;;;;;5099305;28;20044;-52
2021/11/14 06:43:38;;;;;;;6.13;2.20;;;15.40;99.90;;;;;;5117558;28;20070;-52
2021/11/14 06:46:05;;;;;;;3.15;1.35;;;15.50;99.90;;;;;;5117342;28;20035;-50
2021/11/14 06:48:33;;;;;;;8.57;1.90;;;15.60;99.90;;;;;;5076915;28;20478;-51
2021/11/14 06:51:01;;;;;;;3.17;1.70;;;15.60;99.90;;;;;;5076210;28;20056;-50
2021/11/14 06:53:28;;;;;;;2.83;1.30;;;15.60;99.90;;;;;;5073791;28;20494;-54
2021/11/14 06:55:57;;;;;;;1.90;1.10;;;15.70;99.90;;;;;;5046522;28;20039;-52
2021/11/14 06:58:25;;;;;;;2.30;1.20;;;15.70;99.90;;;;;;5059562;28;20045;-50
2021/11/14 07:00:52;;;;;;;2.78;1.40;;;15.70;99.90;;;;;;5092246;28;20127;-50
2021/11/14 07:03:20;;;;;;;2.53;1.23;;;15.70;99.90;;;;;;5103830;28;20134;-53
2021/11/14 07:05:48;;;;;;;2.22;1.30;;;15.70;99.90;;;;;;5105370;28;20039;-53
2021/11/14 07:08:16;;;;;;;3.25;1.30;;;15.70;99.90;;;;;;5075640;28;20044;-53
2021/11/14 07:10:43;;;;;;;2.10;1.15;;;15.70;99.90;;;;;;5072374;28;20051;-53
2021/11/14 07:13:11;;;;;;;2.67;1.20;;;15.70;99.90;;;;;;5076771;28;20105;-49
2021/11/14 07:15:39;;;;;;;2.67;1.27;;;15.70;99.90;;;;;;5108204;28;20052;-49
2021/11/14 07:18:07;;;;;;;2.90;1.77;;;15.70;99.90;;;;;;5097416;28;20063;-51
2021/11/14 07:20:36;;;;;;;2.22;1.20;;;15.50;99.90;;;;;;5083766;28;20048;-54
2021/11/14 07:23:03;;;;;;;4.00;2.17;;;15.40;99.90;;;;;;5104043;28;20043;-54
2021/11/14 07:25:31;;;;;;;4.38;1.50;;;15.30;99.90;;;;;;5083024;28;20044;-52
2021/11/14 07:28:00;;;;;;;4.10;1.65;;;15.30;99.90;;;;;;5098842;28;20143;-57
2021/11/14 07:30:28;;;;;;;2.65;1.70;;;15.20;99.90;;;;;;5070584;28;20063;-54
2021/11/14 07:32:56;;;;;;;2.53;1.40;;;15.20;99.90;;;;;;5076536;28;20041;-49
2021/11/14 07:35:25;;;;;;;4.80;1.55;;;15.10;99.90;;;;;;5103489;28;20106;-50
2021/11/14 07:37:53;;;;;;;9.70;2.33;;;15.00;99.90;;;;;;5074262;28;20054;-50
2021/11/14 07:40:23;;;;;;;3.75;1.60;;;14.90;99.90;;;;;;5097216;28;20057;-50
2021/11/14 07:42:51;;;;;;;2.90;1.42;;;15.00;99.90;;;;;;5075885;28;20040;-52
2021/11/14 07:45:21;;;;;;;5.75;2.33;;;15.00;99.90;;;;;;5084136;28;20049;-52
2021/11/14 07:47:49;;;;;;;5.57;2.22;;;15.10;99.90;;;;;;5075388;28;20044;-51
2021/11/14 07:50:20;;;;;;;4.57;1.90;;;15.00;99.90;;;;;;5100419;28;20071;-53
2021/11/14 07:52:48;;;;;;;4.03;1.98;;;14.90;99.90;;;;;;5067314;28;20087;-54
2021/11/14 07:55:16;;;;;;;2.92;1.27;;;14.80;99.90;;;;;;5105239;28;20032;-48
2021/11/14 07:57:43;;;;;;;2.97;1.52;;;14.70;99.90;;;;;;5104375;28;20409;-57
2021/11/14 08:00:16;;;;;;;2.22;1.50;;;14.70;99.90;;;;;;5100702;28;20074;-52
2021/11/14 08:02:45;;;;;;;3.05;1.50;;;14.60;99.90;;;;;;5098172;28;20039;-53
2021/11/14 08:05:14;;;;;;;2.58;1.30;;;14.60;99.90;;;;;;5092362;28;20040;-49
2021/11/14 08:07:43;;;;;;;2.55;1.70;;;14.60;99.90;;;;;;5079247;28;20032;-51
2021/11/14 08:10:11;;;;;;;2.53;1.67;;;14.60;99.90;;;;;;5078913;28;20047;-49
2021/11/14 08:12:40;;;;;;;2.50;1.30;;;14.60;99.90;;;;;;4958689;28;20876;-54
2021/11/14 08:15:08;;;;;;;2.47;1.35;;;14.70;99.90;;;;;;4990702;28;20048;-55
2021/11/14 08:17:36;;;;;;;3.53;1.10;;;14.60;99.90;;;;;;5081709;28;20040;-53
2021/11/14 08:20:05;;;;;;;2.08;1.30;;;14.60;99.90;;;;;;5071406;28;20055;-52
2021/11/14 08:22:34;;;;;;;2.60;1.63;;;14.60;99.90;;;;;;5067957;28;20605;-53
2021/11/14 08:25:02;;;;;;;2.53;1.70;;;14.50;99.90;;;;;;5066195;28;20549;-53
2021/11/14 08:27:31;;;;;;;2.28;1.40;;;14.50;99.90;;;;;;5073907;28;20043;-53
2021/11/14 08:30:01;;;;;;;2.25;1.42;;;14.50;99.90;;;;;;5067769;28;20048;-54
2021/11/14 08:32:28;;;;;;;2.42;1.33;;;14.60;99.90;;;;;;5057326;28;20076;-56
2021/11/14 08:34:56;;;;;;;2.40;1.10;;;14.60;99.90;;;;;;5093140;28;20036;-53
2021/11/14 08:37:23;;;;;;;2.55;1.40;;;14.60;99.90;;;;;;5083801;28;20068;-52
2021/11/14 08:39:51;;;;;;;4.70;1.90;;;14.60;99.90;;;;;;5074723;28;20040;-51
2021/11/14 08:42:19;;;;;;;4.32;1.33;;;14.70;99.90;;;;;;5082132;28;20498;-49
2021/11/14 08:44:47;;;;;;;4.20;1.55;;;14.70;99.90;;;;;;5057417;28;20048;-57
2021/11/14 08:47:15;;;;;;;3.15;1.90;;;14.70;99.90;;;;;;5088198;28;20043;-49
2021/11/14 08:49:43;;;;;;;3.30;1.50;;;14.70;99.90;;;;;;5082028;28;20117;-49
2021/11/14 08:52:12;;;;;;;4.10;1.10;;;14.70;99.90;;;;;;5095247;28;20056;-54
2021/11/14 08:54:41;;;;;;;2.13;1.20;;;14.70;99.90;;;;;;5074105;28;20048;-52
2021/11/14 08:57:10;;;;;;;7.10;1.25;;;14.70;99.90;;;;;;5056470;28;20048;-53
2021/11/14 08:59:39;;;;;;;3.88;1.65;;;14.80;99.90;;;;;;5074130;28;20051;-54
2021/11/14 09:02:06;;;;;;;3.40;1.50;;;14.80;99.90;;;;;;5074111;28;20044;-54
2021/11/14 09:04:34;;;;;;;5.20;1.52;;;15.00;99.90;;;;;;5074120;28;20051;-52
2021/11/14 09:07:02;;;;;;;1.17;0.85;;;15.10;99.90;;;;;;5072840;28;20040;-53
2021/11/14 09:09:30;;;;;;;4.75;1.30;;;15.30;99.90;;;;;;5056231;28;20044;-55
2021/11/14 09:11:57;;;;;;;2.85;1.55;;;15.50;99.90;;;;;;5073806;28;20040;-49
2021/11/14 09:14:25;;;;;;;3.88;1.35;;;15.60;99.90;;;;;;5073788;28;20090;-48
2021/11/14 09:16:54;;;;;;;2.55;0.98;;;15.70;99.90;;;;;;5061004;28;20101;-49
2021/11/14 09:19:22;;;;;;;3.17;1.10;;;15.70;99.90;;;;;;5079410;28;20044;-48
2021/11/14 09:21:50;;;;;;;2.42;0.77;;;15.90;99.90;;;;;;5081854;28;20062;-53
2021/11/14 09:24:18;;;;;;;3.35;1.15;;;16.00;99.90;;;;;;5070160;28;20040;-51
2021/11/14 09:26:45;;;;;;;1.48;0.88;;;16.30;99.90;;;;;;5089047;28;20041;-51
2021/11/14 09:29:13;;;;;;;5.05;1.75;;;16.30;99.90;;;;;;5071123;28;20473;-49
2021/11/14 09:31:41;;;;;;;2.92;1.70;;;16.40;99.90;;;;;;5085356;28;20047;-52
2021/11/14 09:34:10;;;;;;;3.55;2.28;;;16.50;99.90;;;;;;5060775;28;20037;-50
2021/11/14 09:36:38;;;;;;;3.50;1.95;;;16.70;99.90;;;;;;5071899;28;20041;-52
2021/11/14 09:39:08;;;;;;;4.47;2.40;;;16.70;99.90;;;;;;5072789;28;20041;-52
2021/11/14 09:41:46;;;;;;;10.18;2.33;;;16.70;99.90;;;;;;5073687;28;20098;-51
2021/11/14 09:44:16;;;;;;;14.68;3.45;;;16.70;99.90;;;;;;5073631;28;20044;-50
2021/11/14 09:46:57;;;;;;;5.88;2.72;;;16.80;99.90;;;;;;5073078;28;20048;-50
2021/11/14 09:49:28;;;;;;;8.65;2.53;;;16.80;99.90;;;;;;5071429;28;20526;-51
2021/11/14 09:51:57;;;;;;;13.40;4.38;;;16.80;99.90;;;;;;5038597;28;20080;-56
2021/11/14 09:54:27;;;;;;;7.45;2.30;;;16.80;99.90;;;;;;5091972;28;20048;-51
2021/11/14 09:56:58;;;;;;;8.23;2.47;;;16.80;99.90;;;;;;5073790;28;20040;-51
2021/11/14 09:59:26;;;;;;;5.55;3.20;;;16.90;99.90;;;;;;5092405;28;20048;-50
2021/11/14 10:01:56;;;;;;;7.00;3.00;;;16.80;99.90;;;;;;5073772;28;20500;-55
2021/11/14 10:04:24;;;;;;;9.15;2.75;;;16.80;99.90;;;;;;5092702;28;20044;-52
2021/11/14 10:06:56;;;;;;;5.47;2.65;;;16.80;99.90;;;;;;5075669;28;20111;-53
2021/11/14 10:09:38;;;;;;;5.07;2.63;;;16.70;99.90;;;;;;5093193;28;20048;-55
2021/11/14 10:12:35;;;;;;;3.28;1.50;;;16.70;99.90;;;;;;5093472;28;20040;-53
2021/11/14 10:15:07;;;;;;;6.28;2.35;;;16.50;99.90;;;;;;5075433;28;20058;-54
2021/11/14 10:17:36;;;;;;;4.28;1.90;;;16.60;99.90;;;;;;5093290;28;20047;-50
2021/11/14 10:20:05;;;;;;;9.65;5.53;;;16.80;99.90;;;;;;5093122;28;20562;-51
2021/11/14 10:22:36;;;;;;;6.65;4.00;;;16.80;99.90;;;;;;5075665;28;20043;-52
2021/11/14 10:25:06;;;;;;;9.77;5.57;;;16.80;99.90;;;;;;5093332;28;20048;-55
2021/11/14 10:27:34;;;;;;;16.65;10.38;;;17.00;99.90;;;;;;5093226;28;20053;-50
2021/11/14 10:30:03;;;;;;;5.95;3.78;;;17.00;99.90;;;;;;5093345;28;20119;-53
2021/11/14 10:32:31;;;;;;;4.88;2.15;;;17.10;99.90;;;;;;5075348;28;20039;-48
2021/11/14 10:35:01;;;;;;;5.65;2.30;;;17.10;99.90;;;;;;5093298;28;20044;-49
2021/11/14 10:37:45;;;;;;;3.42;2.08;;;17.10;99.90;;;;;;5075272;28;20044;-48
2021/11/14 10:40:23;;;;;;;3.22;2.45;;;17.20;99.90;;;;;;5093349;28;20398;-50
2021/11/14 10:42:57;;;;;;;5.25;2.58;;;17.30;99.90;;;;;;5093234;28;20036;-49
2021/11/14 10:45:31;;;;;;;3.42;1.98;;;17.40;99.90;;;;;;5092976;28;20036;-49
2021/11/14 10:48:14;;;;;;;7.18;2.85;;;17.40;99.90;;;;;;5075119;28;20376;-49
2021/11/14 10:50:44;;;;;;;4.45;2.35;;;17.40;99.90;;;;;;5074697;28;20110;-52
2021/11/14 10:53:16;;;;;;;6.53;3.25;;;17.50;99.90;;;;;;5092794;28;20140;-49
2021/11/14 10:55:46;;;;;;;6.00;3.40;;;17.50;99.90;;;;;;5075715;28;20047;-49
2021/11/14 10:58:17;;;;;;;4.30;2.30;;;17.50;99.90;;;;;;5093127;28;20040;-49
2021/11/14 11:00:46;;;;;;;4.88;2.53;;;17.50;99.90;;;;;;5076343;28;20089;-48
2021/11/14 11:03:15;;;;;;;6.10;4.00;;;17.50;99.90;;;;;;5096923;28;20114;-51
2021/11/14 11:05:43;;;;;;;7.07;2.60;;;17.60;99.90;;;;;;5086750;28;20528;-49
2021/11/14 11:08:12;;;;;;;3.75;2.30;;;17.70;99.90;;;;;;5094638;28;20402;-48
2021/11/14 11:10:49;;;;;;;4.35;2.05;;;17.80;99.90;;;;;;5082313;28;20044;-50
2021/11/14 11:13:41;;;;;;;6.35;2.72;;;17.90;99.90;;;;;;5077175;28;20048;-53
2021/11/14 11:16:30;;;;;;;4.03;2.22;;;17.90;99.90;;;;;;5103784;28;20068;-51
2021/11/14 11:19:13;;;;;;;5.03;2.88;;;18.00;99.90;;;;;;5105247;28;20106;-53
2021/11/14 11:21:45;;;;;;;6.78;2.80;;;18.10;99.90;;;;;;5085813;28;20680;-52
2021/11/14 11:24:17;;;;;;;5.95;3.15;;;18.10;99.90;;;;;;5095028;28;20044;-54
2021/11/14 11:26:59;;;;;;;9.65;3.20;;;18.20;99.90;;;;;;5076128;28;20040;-53
2021/11/14 11:29:28;;;;;;;7.93;3.67;;;18.30;99.90;;;;;;5093804;28;20094;-51
2021/11/14 11:31:57;;;;;;;5.78;3.33;;;18.20;99.90;;;;;;5076406;28;20048;-52
2021/11/14 11:34:25;;;;;;;8.23;2.65;;;18.10;99.90;;;;;;5077196;28;20040;-53
2021/11/14 11:36:54;;;;;;;3.40;1.98;;;18.10;99.90;;;;;;5094933;28;20444;-53
2021/11/14 11:39:25;;;;;;;4.85;2.10;;;18.20;99.90;;;;;;5076549;28;20040;-52
2021/11/14 11:41:56;;;;;;;6.13;2.05;;;18.10;99.90;;;;;;5094800;28;20040;-49
2021/11/14 11:44:26;;;;;;;7.75;2.38;;;18.10;99.90;;;;;;5093677;28;20048;-53
2021/11/14 11:47:02;;;;;;;8.77;3.45;;;18.20;99.90;;;;;;5077018;28;20087;-49
2021/11/14 11:49:36;;;;;;;8.55;3.00;;;18.30;99.90;;;;;;5095893;28;20216;-52
2021/11/14 11:52:17;;;;;;;4.88;2.97;;;18.30;99.90;;;;;;5095149;28;20040;-50
2021/11/14 11:54:48;;;;;;;7.18;3.08;;;18.30;99.90;;;;;;5095832;28;20390;-53
2021/11/14 11:57:18;;;;;;;7.03;4.13;;;18.20;99.90;;;;;;5095726;28;20040;-51
2021/11/14 11:59:50;;;;;;;7.35;3.97;;;18.20;99.90;;;;;;5061083;28;20161;-51
2021/11/14 12:02:21;;;;;;;9.48;4.20;;;18.00;99.90;;;;;;5095585;28;20613;-50
2021/11/14 12:04:51;;;;;;;8.25;4.35;;;18.00;99.90;;;;;;5095323;28;20047;-48
2021/11/14 12:07:27;;;;;;;5.78;3.85;;;18.10;99.90;;;;;;5095171;28;20044;-50
2021/11/14 12:10:19;;;;;;;9.25;4.03;;;18.00;99.90;;;;;;5094392;28;20075;-50
2021/11/14 12:12:52;;;;;;;7.75;3.80;;;18.00;99.90;;;;;;5085210;28;20036;-50
2021/11/14 12:15:29;;;;;;;10.05;3.28;;;17.90;99.90;;;;;;5077410;28;20575;-49
2021/11/14 12:18:07;;;;;;;9.30;3.22;;;17.90;99.90;;;;;;5057544;28;20043;-49
2021/11/14 12:20:53;;;;;;;8.75;3.80;;;17.90;99.90;;;;;;5087816;28;20448;-49
2021/11/14 12:23:31;;;;;;;10.80;4.13;;;17.90;99.90;;;;;;5095323;28;20040;-50
2021/11/14 12:26:06;;;;;;;7.20;3.97;;;17.90;99.90;;;;;;5094564;28;20075;-50
2021/11/14 12:28:34;;;;;;;9.23;3.67;;;18.00;99.90;;;;;;5095071;28;20766;-51
2021/11/14 12:31:11;;;;;;;4.68;3.50;;;18.10;99.90;;;;;;5095558;28;20047;-53
2021/11/14 12:33:44;;;;;;;7.03;2.97;;;18.00;99.90;;;;;;5094833;28;20487;-51
2021/11/14 12:36:21;;;;;;;11.15;4.55;;;17.90;99.90;;;;;;5057720;28;20041;-51
2021/11/14 12:39:00;;;;;;;5.60;3.03;;;17.90;99.90;;;;;;5060358;28;20059;-51
2021/11/14 12:41:32;;;;;;;8.50;4.85;;;17.80;99.90;;;;;;5094825;28;20036;-49
2021/11/14 12:44:00;;;;;;;7.93;5.97;;;18.00;99.90;;;;;;5094678;28;20067;-49
2021/11/14 12:46:27;;;;;;;10.13;3.58;;;18.00;99.90;;;;;;5094015;28;20036;-52
2021/11/14 12:48:56;;;;;;;5.15;3.92;;;18.00;99.90;;;;;;5075074;28;20051;-52
2021/11/14 12:51:29;;;;;;;12.20;3.47;;;18.00;99.90;;;;;;5093705;28;20051;-50
2021/11/14 12:54:02;;;;;;;7.60;3.58;;;18.00;99.90;;;;;;5093949;28;20483;-51
2021/11/14 12:56:49;;;;;;;5.22;3.75;;;17.90;99.90;;;;;;5094274;28;20044;-51
2021/11/14 12:59:17;;;;;;;12.95;4.00;;;18.00;99.90;;;;;;5093780;28;20538;-49
2021/11/14 13:02:00;;;;;;;10.82;5.03;;;18.10;99.90;;;;;;5075604;28;20040;-50
2021/11/14 13:04:36;;;;;;;8.02;4.90;;;18.10;99.90;;;;;;5094178;28;20043;-49
2021/11/14 13:07:17;;;;;;;10.32;4.18;;;18.20;99.90;;;;;;5094059;28;20070;-49
2021/11/14 13:09:46;;;;;;;5.28;3.28;;;18.10;99.90;;;;;;5076070;28;20446;-49
2021/11/14 13:12:19;;;;;;;8.30;3.83;;;18.20;99.90;;;;;;5094164;28;20040;-48
2021/11/14 13:14:54;;;;;;;8.27;3.95;;;18.20;99.90;;;;;;5094306;28;20501;-49
2021/11/14 13:17:23;;;;;;;8.03;3.27;;;18.20;99.90;;;;;;5075705;28;20439;-49